createdAt,value
2023-05-06T00:04:17.523Z,15.35
2023-05-06T00:09:21.509Z,16.50
2023-05-06T00:14:24.952Z,14.70
2023-05-06T00:19:29.996Z,16.00
2023-05-06T00:24:33.701Z,15.48
2023-05-06T00:29:37.378Z,17.15
2023-05-06T00:34:42.611Z,14.25
2023-05-06T00:39:46.260Z,17.38
2023-05-06T00:44:49.538Z,15.75
2023-05-06T00:49:54.330Z,16.25
2023-05-06T00:54:58.308Z,19.23
2023-05-06T01:00:01.824Z,20.48
2023-05-06T01:05:07.995Z,19.75
2023-05-06T01:10:20.495Z,17.38
2023-05-06T01:15:32.188Z,21.05
2023-05-06T01:20:38.283Z,17.83
2023-05-06T01:25:43.517Z,13.73
2023-05-06T01:30:54.756Z,17.58
2023-05-06T01:36:06.490Z,16.70
2023-05-06T01:41:16.980Z,15.70
2023-05-06T01:46:21.664Z,15.45
2023-05-06T01:51:25.850Z,20.73
2023-05-06T01:56:31.590Z,18.83
2023-05-06T02:01:35.631Z,19.80
2023-05-06T02:06:39.796Z,18.10
2023-05-06T02:11:44.904Z,23.17
2023-05-06T02:16:48.579Z,17.50
2023-05-06T02:21:52.470Z,20.90
2023-05-06T02:26:57.484Z,16.00
2023-05-06T02:32:01.036Z,16.63
2023-05-06T02:37:05.055Z,16.23
2023-05-06T02:42:09.727Z,17.63
2023-05-06T02:47:12.984Z,17.33
2023-05-06T02:52:16.205Z,23.98
2023-05-06T02:57:20.828Z,15.32
2023-05-06T03:02:24.296Z,17.87
2023-05-06T03:07:27.605Z,18.65
2023-05-06T03:12:32.544Z,19.00
2023-05-06T03:17:36.266Z,21.02
2023-05-06T03:27:47.839Z,18.40
2023-05-06T03:32:57.181Z,20.23
2023-05-06T03:38:06.368Z,24.00
2023-05-06T03:43:21.462Z,21.75
2023-05-06T03:48:28.897Z,22.25
2023-05-06T03:53:32.983Z,19.30
2023-05-06T03:58:38.894Z,22.70
2023-05-06T04:03:45.948Z,23.17
2023-05-06T04:08:49.901Z,23.37
2023-05-06T04:13:56.133Z,28.87
2023-05-06T04:19:00.097Z,24.90
2023-05-06T04:24:03.883Z,21.80
2023-05-06T04:29:13.884Z,23.63
2023-05-06T04:34:27.776Z,29.05
2023-05-06T04:39:32.991Z,24.65
2023-05-06T04:44:38.169Z,23.63
2023-05-06T04:49:44.882Z,30.23
2023-05-06T04:54:49.033Z,21.55
2023-05-06T04:59:54.213Z,19.70
2023-05-06T05:04:58.457Z,30.95
2023-05-06T05:10:02.528Z,30.75
2023-05-06T05:15:10.565Z,23.55
2023-05-06T05:20:14.829Z,28.17
2023-05-06T05:25:18.318Z,26.30
2023-05-06T05:30:24.955Z,32.50
2023-05-06T05:35:30.088Z,25.40
2023-05-06T05:40:33.360Z,22.13
2023-05-06T05:45:38.398Z,28.13
2023-05-06T05:55:46.234Z,31.15
2023-05-06T06:00:51.148Z,22.50
2023-05-06T06:05:55.599Z,24.17
2023-05-06T06:16:12.837Z,22.35
2023-05-06T06:21:16.134Z,20.03
2023-05-06T06:26:20.342Z,21.75
2023-05-06T06:31:25.977Z,27.13
2023-05-06T06:36:30.384Z,20.88
2023-05-06T06:41:33.772Z,26.35
2023-05-06T06:46:38.882Z,22.58
2023-05-06T06:51:42.113Z,26.80
2023-05-06T06:56:45.390Z,34.35
2023-05-06T07:01:49.995Z,25.65
2023-05-06T07:06:53.487Z,28.07
2023-05-06T07:11:56.994Z,21.65
2023-05-06T07:17:02.454Z,27.77
2023-05-06T07:27:09.809Z,28.33
2023-05-06T07:32:14.917Z,22.17
2023-05-06T07:37:18.609Z,24.05
2023-05-06T07:42:21.877Z,24.23
2023-05-06T07:47:31.435Z,22.13
2023-05-06T07:52:35.334Z,34.38
2023-05-06T07:57:39.176Z,28.48
2023-05-06T08:02:45.327Z,25.80
2023-05-06T08:07:50.512Z,23.08
2023-05-06T08:12:53.872Z,21.27
2023-05-06T08:18:07.073Z,21.40
2023-05-06T08:23:18.288Z,23.05
2023-05-06T08:28:23.570Z,22.52
2023-05-06T08:33:31.836Z,23.85
2023-05-06T08:38:35.048Z,18.58
2023-05-06T08:43:42.651Z,20.05
2023-05-06T08:48:47.414Z,20.73
2023-05-06T08:53:52.006Z,22.40
2023-05-06T08:58:56.217Z,19.57
2023-05-06T09:04:01.113Z,19.65
2023-05-06T09:09:05.711Z,17.80
2023-05-06T09:14:12.045Z,21.47
2023-05-06T09:19:18.005Z,17.73
2023-05-06T09:24:22.693Z,18.42
2023-05-06T09:29:26.439Z,18.13
2023-05-06T09:34:31.305Z,16.13
2023-05-06T09:39:34.856Z,17.50
2023-05-06T09:44:39.143Z,16.92
2023-05-06T09:49:44.239Z,15.18
2023-05-06T09:54:48.533Z,20.25
2023-05-06T09:59:53.674Z,14.32
2023-05-06T10:05:00.098Z,13.82
2023-05-06T10:10:04.930Z,11.77
2023-05-06T10:15:10.252Z,17.77
2023-05-06T10:20:16.353Z,19.83
2023-05-06T10:25:30.325Z,13.55
2023-05-06T10:30:35.958Z,12.95
2023-05-06T10:35:49.503Z,16.35
2023-05-06T10:40:53.886Z,11.27
2023-05-06T10:46:02.173Z,10.80
2023-05-06T10:51:25.032Z,11.20
2023-05-06T10:56:28.290Z,11.57
2023-05-06T11:01:32.188Z,9.13
2023-05-06T11:06:39.903Z,12.02
2023-05-06T11:11:58.848Z,13.90
2023-05-06T11:17:02.584Z,12.05
2023-05-06T11:22:08.690Z,16.58
2023-05-06T11:27:13.058Z,10.70
2023-05-06T11:32:24.746Z,7.53
2023-05-06T11:37:30.845Z,11.10
2023-05-06T11:42:34.573Z,10.27
2023-05-06T11:47:44.595Z,10.10
2023-05-06T11:52:49.690Z,14.10
2023-05-06T11:57:55.429Z,10.00
2023-05-06T12:02:59.290Z,12.55
2023-05-06T12:08:08.386Z,13.55
2023-05-06T12:13:17.079Z,12.00
2023-05-06T12:18:20.720Z,12.07
2023-05-06T12:23:25.679Z,12.13
2023-05-06T12:28:30.011Z,12.27
2023-05-06T12:33:46.718Z,14.37
2023-05-06T12:38:56.044Z,11.80
2023-05-06T12:43:59.494Z,11.85
2023-05-06T12:49:04.072Z,11.68
2023-05-06T12:54:30.484Z,11.80
2023-05-06T12:59:34.488Z,13.25
2023-05-06T13:04:37.889Z,14.30
2023-05-06T13:09:43.032Z,11.93
2023-05-06T13:14:46.614Z,14.30
2023-05-06T13:19:50.390Z,13.32
2023-05-06T13:24:55.429Z,13.48
2023-05-06T13:29:59.251Z,11.27
2023-05-06T13:35:02.930Z,9.02
2023-05-06T13:40:09.731Z,17.65
2023-05-06T13:45:13.697Z,10.95
2023-05-06T13:50:17.147Z,10.85
2023-05-06T13:55:22.153Z,11.32
2023-05-06T14:00:25.512Z,9.90
2023-05-06T14:05:29.380Z,14.48
2023-05-06T14:10:34.567Z,11.80
2023-05-06T14:15:38.199Z,9.63
2023-05-06T14:20:42.026Z,11.88
2023-05-06T14:25:47.051Z,19.73
2023-05-06T14:30:52.319Z,14.18
2023-05-06T14:41:01.410Z,13.57
2023-05-06T14:46:05.142Z,11.20
2023-05-06T14:51:08.710Z,14.45
2023-05-06T14:56:13.770Z,15.38
2023-05-06T15:01:17.574Z,14.80
2023-05-06T15:06:21.490Z,13.27
2023-05-06T15:11:26.646Z,16.20
2023-05-06T15:21:33.664Z,13.20
2023-05-06T15:26:38.746Z,14.25
2023-05-06T15:31:45.033Z,13.95
2023-05-06T15:36:53.026Z,12.73
2023-05-06T15:42:00.507Z,12.55
2023-05-06T15:47:04.322Z,13.45
2023-05-06T15:52:07.978Z,11.95
2023-05-06T15:57:12.962Z,16.08
2023-05-06T16:07:23.179Z,18.73
2023-05-06T16:12:28.186Z,24.27
2023-05-06T16:17:33.287Z,15.38
2023-05-06T16:22:39.216Z,19.45
2023-05-06T16:27:45.129Z,20.35
2023-05-06T16:32:49.187Z,20.63
2023-05-06T16:37:52.812Z,20.02
2023-05-06T16:42:58.115Z,22.15
2023-05-06T16:48:02.085Z,20.52
2023-05-06T16:53:05.956Z,21.05
2023-05-06T16:58:11.012Z,22.48
2023-05-06T17:03:14.352Z,27.05
2023-05-06T17:08:18.815Z,21.35
2023-05-06T17:13:23.642Z,27.40
2023-05-06T17:23:30.255Z,21.20
2023-05-06T17:28:35.153Z,21.75
2023-05-06T17:33:38.790Z,24.20
2023-05-06T17:38:42.518Z,18.92
2023-05-06T17:43:47.895Z,24.05
2023-05-06T17:53:54.927Z,26.60
2023-05-06T17:59:02.844Z,26.65
2023-05-06T18:04:06.571Z,20.48
2023-05-06T18:09:10.792Z,20.27
2023-05-06T18:14:16.048Z,24.33
2023-05-06T18:19:19.842Z,21.40
2023-05-06T18:24:23.699Z,31.08
2023-05-06T18:29:30.873Z,25.40
2023-05-06T18:34:34.933Z,30.85
2023-05-06T18:39:42.315Z,28.90
2023-05-06T18:44:48.599Z,26.20
2023-05-06T18:49:53.849Z,25.60
2023-05-06T18:54:57.502Z,27.48
2023-05-06T19:00:02.556Z,21.02
2023-05-06T19:05:07.001Z,20.95
2023-05-06T19:10:11.596Z,21.35
2023-05-06T19:15:18.737Z,23.75
2023-05-06T19:20:22.352Z,20.92
2023-05-06T19:25:27.481Z,17.70
2023-05-06T19:30:34.861Z,19.83
2023-05-06T19:35:40.251Z,19.92
2023-05-06T19:40:43.940Z,18.40
2023-05-06T19:45:48.990Z,18.58
2023-05-06T19:50:54.350Z,18.75
2023-05-06T19:55:59.627Z,18.08
2023-05-06T20:01:05.885Z,18.45
2023-05-06T20:06:09.674Z,16.33
2023-05-06T20:11:13.463Z,18.60
2023-05-06T20:16:18.482Z,16.52
2023-05-06T20:21:22.001Z,19.65
2023-05-06T20:26:25.730Z,19.40
2023-05-06T20:31:30.901Z,15.27
2023-05-06T20:36:35.387Z,19.15
2023-05-06T20:41:38.937Z,19.35
2023-05-06T20:46:44.132Z,17.73
2023-05-06T20:56:51.483Z,13.70
2023-05-06T21:01:56.778Z,14.80
2023-05-06T21:07:00.898Z,12.32
2023-05-06T21:12:04.852Z,14.98
2023-05-06T21:17:09.982Z,13.93
2023-05-06T21:22:13.697Z,11.68
2023-05-06T21:27:17.746Z,10.98
2023-05-06T21:32:23.217Z,13.02
2023-05-06T21:37:27.037Z,13.70
2023-05-06T21:42:30.831Z,10.85
2023-05-06T21:47:36.035Z,11.70
2023-05-06T21:52:39.802Z,12.45
2023-05-06T21:57:44.605Z,13.30
2023-05-06T22:02:50.940Z,10.75
2023-05-06T22:07:54.868Z,8.90
2023-05-06T22:12:58.861Z,8.02
2023-05-06T22:18:04.082Z,9.65
2023-05-06T22:23:07.567Z,10.13
2023-05-06T22:28:11.199Z,8.38
2023-05-06T22:33:16.276Z,11.07
2023-05-06T22:38:20.047Z,9.05
2023-05-06T22:43:24.008Z,9.63
2023-05-06T22:48:29.059Z,14.13
2023-05-06T22:53:32.768Z,12.70
2023-05-06T22:58:36.568Z,9.98
2023-05-06T23:03:41.534Z,12.32
2023-05-06T23:08:45.072Z,12.13
2023-05-06T23:13:48.820Z,9.93
2023-05-06T23:18:55.280Z,9.50
2023-05-06T23:23:58.595Z,13.48
2023-05-06T23:29:02.358Z,15.15
2023-05-06T23:34:07.579Z,21.52
2023-05-06T23:39:12.495Z,13.85
2023-05-06T23:44:16.186Z,14.03
2023-05-06T23:49:21.449Z,12.40
2023-05-06T23:54:25.064Z,14.75
2023-05-06T23:59:30.224Z,19.13
